Kazime Ana — TCPT8 — position and weather

sailwx.info

Track history (hours):
 
Tides and Currents Weather Stations Pressure Air Temp Water Temp Dewpoint Dewpoint Depression Visibility Wind Speed Wind Dir Waves Ship Positions

Kazime Ana

Last reported at 2014-Aug-27 18:33 UTC. Time now 2014-Aug-27 19:15 UTC.
Position N 39°53' E 026°09'.

Length 115 m; draft 3.9 m.

Type: Cargo ship. MMSI: 271001019.

Date/timePositionNaut miles runAvg speedWind from/ knotsBaromVisibWave heightAir tempDewpointWater temp
2014-Aug-27 18:33N 39°53' E 026°09'0 0.0
2014-Aug-27 17:33N 39°53' E 026°09'0 0.0
2014-Aug-27 16:29N 39°53' E 026°09'0 0.0
2014-Aug-27 14:04N 39°53' E 026°09'0 0.0
2014-Aug-27 13:28N 39°53' E 026°09'0 0.0
2014-Aug-27 12:17N 39°53' E 026°09'0 0.0
2014-Aug-27 11:33N 39°53' E 026°09'0 0.0
2014-Aug-27 10:31N 39°53' E 026°09'0 0.0
2014-Aug-27 09:33N 39°53' E 026°09'0 0.0
2014-Aug-27 08:32N 39°53' E 026°09'0 0.0
2014-Aug-27 07:33N 39°53' E 026°09'0 0.0
2014-Aug-27 06:33N 39°53' E 026°09'6 2.8
2014-Aug-27 04:28N 39°59' E 026°08'1613.1
2014-Aug-27 03:17N 40°09' E 026°23'1411.2
2014-Aug-27 02:04N 40°19' E 026°36'812.1
2014-Aug-27 01:24N 40°25' E 026°43'1512.0
2014-Aug-27 00:10N 40°32' E 026°60'5 0.1
2014-Aug-25 05:10N 40°29' E 026°55'50 5.1
2014-Aug-24 19:16N 39°53' E 026°09'0 0.0
2014-Aug-24 18:31N 39°53' E 026°09'0 0.0
2014-Aug-24 17:28N 39°53' E 026°09'0 0.0
2014-Aug-24 16:31N 39°53' E 026°09'0 0.0
2014-Aug-24 15:31N 39°53' E 026°09'0 0.0
2014-Aug-24 14:31N 39°53' E 026°09'0 0.0
2014-Aug-24 13:13N 39°53' E 026°09'0 0.0
2014-Aug-24 12:28N 39°53' E 026°09'0 0.0
2014-Aug-24 11:19N 39°53' E 026°09'0 0.0
2014-Aug-24 09:04N 39°53' E 026°09'83 2.6
2014-Aug-23 01:18N 40°45' E 027°35'912.2
2014-Aug-23 00:32N 40°48' E 027°46'1411.9
2014-Aug-22 23:21N 40°51' E 028°04'28 1.7
2014-Aug-22 06:27N 40°57' E 028°41'1 0.9
2014-Aug-22 05:24N 40°57' E 028°40'9 7.6
2014-Aug-22 04:13N 40°55' E 028°28'910.6
2014-Aug-22 03:23N 40°54' E 028°17'1010.4
2014-Aug-22 02:27N 40°53' E 028°04'1010.5
2014-Aug-22 01:29N 40°51' E 027°51'49 9.8
2014-Aug-21 20:32N 40°28' E 026°54'10 9.6
2014-Aug-21 19:32N 40°24' E 026°43'21 8.5
2014-Aug-21 17:04N 40°09' E 026°24'15 7.9
2014-Aug-21 15:14N 39°59' E 026°09'7 4.0
2014-Aug-21 13:33N 39°53' E 026°09'0 0.0
2014-Aug-21 12:32N 39°53' E 026°09'0 0.0
2014-Aug-21 11:23N 39°53' E 026°09'0 0.0
2014-Aug-21 10:32N 39°53' E 026°09'5 0.4
2014-Aug-20 23:21N 39°58' E 026°08'1613.0
2014-Aug-20 22:05N 40°09' E 026°23'1912.1
2014-Aug-20 20:33N 40°23' E 026°40'  
Track history (hours):
 
Tides and Currents Weather Stations Pressure Air Temp Water Temp Dewpoint Dewpoint Depression Visibility Wind Speed Wind Dir Waves Ship Positions

Kazime Ana

Last reported at 2014-Aug-27 18:33 UTC. Time now 2014-Aug-27 19:15 UTC.
Position N 39°53' E 026°09'.

Length 115 m; draft 3.9 m.

Type: Cargo ship. MMSI: 271001019.

Date/timePositionNaut miles runAvg speedWind from/ knotsBaromVisibWave heightAir tempDewpointWater temp
2014-Aug-27 18:33N 39°53' E 026°09'0 0.0
2014-Aug-27 17:33N 39°53' E 026°09'0 0.0
2014-Aug-27 16:29N 39°53' E 026°09'0 0.0
2014-Aug-27 14:04N 39°53' E 026°09'0 0.0
2014-Aug-27 13:28N 39°53' E 026°09'0 0.0
2014-Aug-27 12:17N 39°53' E 026°09'0 0.0
2014-Aug-27 11:33N 39°53' E 026°09'0 0.0
2014-Aug-27 10:31N 39°53' E 026°09'0 0.0
2014-Aug-27 09:33N 39°53' E 026°09'0 0.0
2014-Aug-27 08:32N 39°53' E 026°09'0 0.0
2014-Aug-27 07:33N 39°53' E 026°09'0 0.0
2014-Aug-27 06:33N 39°53' E 026°09'6 2.8
2014-Aug-27 04:28N 39°59' E 026°08'1613.1
2014-Aug-27 03:17N 40°09' E 026°23'1411.2
2014-Aug-27 02:04N 40°19' E 026°36'812.1
2014-Aug-27 01:24N 40°25' E 026°43'1512.0
2014-Aug-27 00:10N 40°32' E 026°60'5 0.1
2014-Aug-25 05:10N 40°29' E 026°55'50 5.1
2014-Aug-24 19:16N 39°53' E 026°09'0 0.0
2014-Aug-24 18:31N 39°53' E 026°09'0 0.0
2014-Aug-24 17:28N 39°53' E 026°09'0 0.0
2014-Aug-24 16:31N 39°53' E 026°09'0 0.0
2014-Aug-24 15:31N 39°53' E 026°09'0 0.0
2014-Aug-24 14:31N 39°53' E 026°09'0 0.0
2014-Aug-24 13:13N 39°53' E 026°09'0 0.0
2014-Aug-24 12:28N 39°53' E 026°09'0 0.0
2014-Aug-24 11:19N 39°53' E 026°09'0 0.0
2014-Aug-24 09:04N 39°53' E 026°09'83 2.6
2014-Aug-23 01:18N 40°45' E 027°35'912.2
2014-Aug-23 00:32N 40°48' E 027°46'1411.9
2014-Aug-22 23:21N 40°51' E 028°04'28 1.7
2014-Aug-22 06:27N 40°57' E 028°41'1 0.9
2014-Aug-22 05:24N 40°57' E 028°40'9 7.6
2014-Aug-22 04:13N 40°55' E 028°28'910.6
2014-Aug-22 03:23N 40°54' E 028°17'1010.4
2014-Aug-22 02:27N 40°53' E 028°04'1010.5
2014-Aug-22 01:29N 40°51' E 027°51'49 9.8
2014-Aug-21 20:32N 40°28' E 026°54'10 9.6
2014-Aug-21 19:32N 40°24' E 026°43'21 8.5
2014-Aug-21 17:04N 40°09' E 026°24'15 7.9
2014-Aug-21 15:14N 39°59' E 026°09'7 4.0
2014-Aug-21 13:33N 39°53' E 026°09'0 0.0
2014-Aug-21 12:32N 39°53' E 026°09'0 0.0
2014-Aug-21 11:23N 39°53' E 026°09'0 0.0
2014-Aug-21 10:32N 39°53' E 026°09'5 0.4
2014-Aug-20 23:21N 39°58' E 026°08'1613.0
2014-Aug-20 22:05N 40°09' E 026°23'1912.1
2014-Aug-20 20:33N 40°23' E 026°40'  

Dump ship's entire track history